createdAt,value
2018-05-03T00:06:01.440Z,9.8
2018-05-03T00:16:01.398Z,9.7
2018-05-03T00:26:01.591Z,9.6
2018-05-03T00:41:01.373Z,9.5
2018-05-03T00:51:01.380Z,9.4
2018-05-03T01:01:01.320Z,9.3
2018-05-03T01:06:01.296Z,9.2
2018-05-03T01:16:01.413Z,9.1
2018-05-03T01:21:03.353Z,9.0
2018-05-03T01:26:01.284Z,8.9
2018-05-03T01:31:01.380Z,8.8
2018-05-03T01:36:01.301Z,8.7
2018-05-03T01:41:01.301Z,8.6
2018-05-03T01:56:01.304Z,8.6
2018-05-03T02:11:01.375Z,8.6
2018-05-03T02:16:01.351Z,8.5
2018-05-03T02:26:01.300Z,8.4
2018-05-03T02:36:01.631Z,8.3
2018-05-03T02:41:01.444Z,8.2
2018-05-03T02:51:01.410Z,8.1
2018-05-03T03:01:01.412Z,8.0
2018-05-03T03:16:01.431Z,8.0
2018-05-03T03:31:01.402Z,8.1
2018-05-03T03:36:01.484Z,8.2
2018-05-03T03:41:01.414Z,8.3
2018-05-03T03:47:01.389Z,8.4
2018-05-03T03:52:01.444Z,8.5
2018-05-03T03:57:01.437Z,8.7
2018-05-03T04:07:01.514Z,8.8
2018-05-03T04:12:01.448Z,8.9
2018-05-03T04:17:01.403Z,9.0
2018-05-03T04:22:01.554Z,9.1
2018-05-03T04:32:01.292Z,9.2
2018-05-03T04:37:01.337Z,9.3
2018-05-03T04:52:01.243Z,9.4
2018-05-03T05:07:01.314Z,9.4
2018-05-03T05:22:01.298Z,9.4
2018-05-03T05:32:01.364Z,9.3
2018-05-03T05:37:01.311Z,9.2
2018-05-03T05:42:01.289Z,9.1
2018-05-03T05:47:01.302Z,9.0
2018-05-03T06:02:01.272Z,9.0
2018-05-03T06:17:01.271Z,9.0
2018-05-03T06:32:01.118Z,9.0
2018-05-03T06:42:01.364Z,8.9
2018-05-03T06:47:01.278Z,9.0
2018-05-03T06:57:01.376Z,9.1
2018-05-03T07:02:01.384Z,9.2
2018-05-03T07:07:01.291Z,9.3
2018-05-03T07:17:01.123Z,9.4
2018-05-03T07:22:01.370Z,9.5
2018-05-03T07:27:01.294Z,9.8
2018-05-03T07:32:01.307Z,10.0
2018-05-03T07:37:01.264Z,10.2
2018-05-03T07:42:01.374Z,10.3
2018-05-03T07:47:01.276Z,10.4
2018-05-03T07:52:01.384Z,10.5
2018-05-03T07:57:01.368Z,10.6
2018-05-03T08:02:01.466Z,10.7
2018-05-03T08:07:06.351Z,10.9
2018-05-03T08:12:02.488Z,11.1
2018-05-03T08:17:01.324Z,11.4
2018-05-03T08:22:03.511Z,11.5
2018-05-03T08:28:01.275Z,11.7
2018-05-03T08:33:01.267Z,11.9
2018-05-03T08:38:01.313Z,12.0
2018-05-03T08:48:01.136Z,12.2
2018-05-03T08:58:01.454Z,12.3
2018-05-03T09:03:01.318Z,12.4
2018-05-03T09:08:01.320Z,12.6
2018-05-03T09:13:02.495Z,12.7
2018-05-03T09:18:01.283Z,12.8
2018-05-03T09:23:03.442Z,12.9
2018-05-03T09:28:01.280Z,13.2
2018-05-03T09:33:01.336Z,13.3
2018-05-03T09:38:01.313Z,13.5
2018-05-03T09:43:02.383Z,13.7
2018-05-03T09:48:01.257Z,13.9
2018-05-03T09:53:01.387Z,14.1
2018-05-03T09:58:01.370Z,14.2
2018-05-03T10:03:01.345Z,14.4
2018-05-03T10:08:01.345Z,14.3
2018-05-03T10:13:02.439Z,14.2
2018-05-03T10:28:01.377Z,14.2
2018-05-03T10:33:01.277Z,14.4
2018-05-03T10:38:01.281Z,14.5
2018-05-03T10:53:01.339Z,14.4
2018-05-03T11:08:01.430Z,14.5
2018-05-03T11:13:03.392Z,14.6
2018-05-03T11:18:01.301Z,14.5
2018-05-03T11:28:02.411Z,14.4
2018-05-03T11:33:01.319Z,14.2
2018-05-03T11:38:01.295Z,14.0
2018-05-03T11:48:01.149Z,13.9
2018-05-03T11:53:01.706Z,14.0
2018-05-03T11:58:01.297Z,14.1
2018-05-03T12:03:01.297Z,14.2
2018-05-03T12:08:01.326Z,14.4
2018-05-03T12:13:01.319Z,14.5
2018-05-03T12:28:01.660Z,14.5
2018-05-03T12:33:01.488Z,14.4
2018-05-03T12:38:01.293Z,14.7
2018-05-03T12:43:05.534Z,15.0
2018-05-03T12:48:11.311Z,15.2
2018-05-03T12:53:01.391Z,15.4
2018-05-03T12:58:01.302Z,15.7
2018-05-03T13:08:01.426Z,15.8
2018-05-03T13:13:01.354Z,16.0
2018-05-03T13:18:01.286Z,16.3
2018-05-03T13:23:01.420Z,16.5
2018-05-03T13:28:01.399Z,16.6
2018-05-03T13:33:01.231Z,16.5
2018-05-03T13:43:02.395Z,16.4
2018-05-03T13:59:01.362Z,16.4
2018-05-03T14:09:02.419Z,16.2
2018-05-03T14:14:01.339Z,16.0
2018-05-03T14:19:02.382Z,15.7
2018-05-03T14:24:01.302Z,15.5
2018-05-03T14:29:01.335Z,15.2
2018-05-03T14:34:01.305Z,15.0
2018-05-03T14:39:02.424Z,15.1
2018-05-03T14:44:01.307Z,15.2
2018-05-03T14:49:01.341Z,15.4
2018-05-03T14:54:01.356Z,15.6
2018-05-03T14:59:03.419Z,15.8
2018-05-03T15:04:01.297Z,15.9
2018-05-03T15:14:03.374Z,15.8
2018-05-03T15:24:01.348Z,15.7
2018-05-03T15:29:01.361Z,15.5
2018-05-03T15:34:01.260Z,15.4
2018-05-03T15:39:01.401Z,15.2
2018-05-03T15:44:01.256Z,15.1
2018-05-03T15:49:01.561Z,15.0
2018-05-03T15:59:06.268Z,14.9
2018-05-03T16:04:01.270Z,14.8
2018-05-03T16:09:01.374Z,14.6
2018-05-03T16:14:01.512Z,14.4
2018-05-03T16:19:01.439Z,14.1
2018-05-03T16:24:01.360Z,14.0
2018-05-03T16:29:02.497Z,13.7
2018-05-03T16:34:01.497Z,13.6
2018-05-03T16:49:01.557Z,13.8
2018-05-03T16:54:02.460Z,14.0
2018-05-03T16:59:06.394Z,14.1
2018-05-03T17:14:06.440Z,13.9
2018-05-03T17:19:01.337Z,13.8
2018-05-03T17:24:01.372Z,13.9
2018-05-03T17:29:01.328Z,14.0
2018-05-03T17:34:01.401Z,14.1
2018-05-03T17:39:01.539Z,14.2
2018-05-03T17:44:01.375Z,14.1
2018-05-03T17:49:01.333Z,13.8
2018-05-03T17:54:01.401Z,13.4
2018-05-03T17:59:01.370Z,13.0
2018-05-03T18:04:01.397Z,12.7
2018-05-03T18:09:01.477Z,12.2
2018-05-03T18:14:01.340Z,12.0
2018-05-03T18:19:01.370Z,11.7
2018-05-03T18:24:02.397Z,11.6
2018-05-03T18:29:01.399Z,11.3
2018-05-03T18:34:01.406Z,11.2
2018-05-03T18:39:01.413Z,11.1
2018-05-03T18:44:01.355Z,11.0
2018-05-03T18:49:01.392Z,10.8
2018-05-03T18:54:02.048Z,10.6
2018-05-03T18:59:01.497Z,10.4
2018-05-03T19:04:01.559Z,10.2
2018-05-03T19:09:01.433Z,10.0
2018-05-03T19:14:01.427Z,9.9
2018-05-03T19:19:01.514Z,9.7
2018-05-03T19:24:01.394Z,9.6
2018-05-03T19:29:01.434Z,9.4
2018-05-03T19:34:01.330Z,9.3
2018-05-03T19:39:01.633Z,9.1
2018-05-03T19:44:01.402Z,9.0
2018-05-03T19:49:01.411Z,8.8
2018-05-03T19:54:01.401Z,8.6
2018-05-03T19:59:01.810Z,8.5
2018-05-03T20:04:01.421Z,8.4
2018-05-03T20:09:02.509Z,8.3
2018-05-03T20:14:01.442Z,8.1
2018-05-03T20:19:01.291Z,8.0
2018-05-03T20:24:01.274Z,7.9
2018-05-03T20:29:01.358Z,7.7
2018-05-03T20:39:03.317Z,7.6
2018-05-03T20:44:01.247Z,7.5
2018-05-03T20:49:01.483Z,7.4
2018-05-03T20:59:01.414Z,7.2
2018-05-03T21:04:01.295Z,7.1
2018-05-03T21:09:01.380Z,7.0
2018-05-03T21:14:01.294Z,6.9
2018-05-03T21:19:02.384Z,6.8
2018-05-03T21:24:01.298Z,6.7
2018-05-03T21:34:02.347Z,6.6
2018-05-03T21:44:01.433Z,6.5
2018-05-03T21:49:01.340Z,6.4
2018-05-03T21:59:01.399Z,6.3
2018-05-03T22:04:01.260Z,6.2
2018-05-03T22:09:01.365Z,6.1
2018-05-03T22:19:01.351Z,6.0
2018-05-03T22:29:06.361Z,5.9
2018-05-03T22:44:06.406Z,5.8
2018-05-03T22:49:01.445Z,5.7
2018-05-03T22:59:02.315Z,5.6
2018-05-03T23:09:01.488Z,5.5
2018-05-03T23:14:01.297Z,5.4
2018-05-03T23:19:02.299Z,5.3
2018-05-03T23:29:02.331Z,5.2
2018-05-03T23:39:01.258Z,5.1
2018-05-03T23:44:01.285Z,5.0
2018-05-03T23:54:02.307Z,4.9
